sensor_id;sensor_type;location;lat;lon;timestamp;pressure;altitude;pressure_sealevel;temperature;humidity
41596;BME280;27283;52.504;13.358;2024-02-15T00:02:06;101348.56;;;11.29;95.96
41596;BME280;27283;52.504;13.358;2024-02-15T00:04:40;101348.97;;;11.34;94.75
41596;BME280;27283;52.504;13.358;2024-02-15T00:07:12;101344.81;;;11.22;95.92
41596;BME280;27283;52.504;13.358;2024-02-15T00:09:45;101346.03;;;11.27;95.73
41596;BME280;27283;52.504;13.358;2024-02-15T00:12:18;101346.06;;;11.09;97.42
41596;BME280;27283;52.504;13.358;2024-02-15T00:14:53;101354.88;;;11.64;94.72
41596;BME280;27283;52.504;13.358;2024-02-15T00:17:28;101341.56;;;11.36;95.24
41596;BME280;27283;52.504;13.358;2024-02-15T00:20:02;101346.00;;;11.45;94.24
41596;BME280;27283;52.504;13.358;2024-02-15T00:22:38;101348.28;;;11.84;93.25
41596;BME280;27283;52.504;13.358;2024-02-15T00:25:12;101347.75;;;11.55;94.13
41596;BME280;27283;52.504;13.358;2024-02-15T00:27:44;101348.47;;;11.91;92.08
41596;BME280;27283;52.504;13.358;2024-02-15T00:30:20;101346.13;;;11.62;93.05
41596;BME280;27283;52.504;13.358;2024-02-15T00:32:52;101348.38;;;11.48;94.03
41596;BME280;27283;52.504;13.358;2024-02-15T00:35:25;101348.25;;;11.32;94.37
41596;BME280;27283;52.504;13.358;2024-02-15T00:37:58;101341.41;;;11.38;94.86
41596;BME280;27283;52.504;13.358;2024-02-15T00:40:30;101341.25;;;11.65;93.28
41596;BME280;27283;52.504;13.358;2024-02-15T00:43:03;101341.72;;;11.61;92.92
41596;BME280;27283;52.504;13.358;2024-02-15T00:45:39;101348.44;;;11.83;92.52
41596;BME280;27283;52.504;13.358;2024-02-15T00:48:12;101350.47;;;11.37;94.63
41596;BME280;27283;52.504;13.358;2024-02-15T00:50:42;101348.06;;;11.25;95.24
41596;BME280;27283;52.504;13.358;2024-02-15T00:53:15;101353.63;;;11.50;93.69
41596;BME280;27283;52.504;13.358;2024-02-15T00:55:48;101356.28;;;11.24;95.59
41596;BME280;27283;52.504;13.358;2024-02-15T00:58:20;101353.31;;;11.35;95.57
41596;BME280;27283;52.504;13.358;2024-02-15T01:00:56;101354.94;;;11.46;95.76
41596;BME280;27283;52.504;13.358;2024-02-15T01:03:30;101345.84;;;11.47;94.93
41596;BME280;27283;52.504;13.358;2024-02-15T01:06:04;101346.97;;;11.62;94.72
41596;BME280;27283;52.504;13.358;2024-02-15T01:08:37;101339.06;;;11.16;94.90
41596;BME280;27283;52.504;13.358;2024-02-15T01:11:10;101351.16;;;11.57;95.24
41596;BME280;27283;52.504;13.358;2024-02-15T01:13:42;101342.13;;;11.22;95.70
41596;BME280;27283;52.504;13.358;2024-02-15T01:16:19;101349.28;;;11.13;97.07
41596;BME280;27283;52.504;13.358;2024-02-15T01:18:51;101343.28;;;11.19;96.74
41596;BME280;27283;52.504;13.358;2024-02-15T01:21:24;101345.50;;;11.42;96.13
41596;BME280;27283;52.504;13.358;2024-02-15T01:23:57;101337.19;;;11.35;95.76
41596;BME280;27283;52.504;13.358;2024-02-15T01:26:30;101333.91;;;11.23;96.52
41596;BME280;27283;52.504;13.358;2024-02-15T01:29:02;101344.38;;;11.52;94.66
41596;BME280;27283;52.504;13.358;2024-02-15T01:31:38;101336.63;;;11.49;96.33
41596;BME280;27283;52.504;13.358;2024-02-15T01:34:11;101339.34;;;11.31;96.99
41596;BME280;27283;52.504;13.358;2024-02-15T01:36:44;101344.88;;;11.30;97.29
41596;BME280;27283;52.504;13.358;2024-02-15T01:39:16;101340.31;;;11.48;95.99
41596;BME280;27283;52.504;13.358;2024-02-15T01:41:49;101339.78;;;11.01;98.01
41596;BME280;27283;52.504;13.358;2024-02-15T01:44:25;101333.81;;;11.15;98.49
41596;BME280;27283;52.504;13.358;2024-02-15T01:47:00;101332.38;;;11.21;97.56
41596;BME280;27283;52.504;13.358;2024-02-15T01:49:33;101343.50;;;11.26;97.98
41596;BME280;27283;52.504;13.358;2024-02-15T01:52:06;101345.78;;;11.57;96.79
41596;BME280;27283;52.504;13.358;2024-02-15T01:54:39;101337.50;;;11.32;96.07
41596;BME280;27283;52.504;13.358;2024-02-15T01:57:12;101329.94;;;11.53;97.04
41596;BME280;27283;52.504;13.358;2024-02-15T01:59:45;101330.09;;;11.86;94.44
41596;BME280;27283;52.504;13.358;2024-02-15T02:02:21;101321.03;;;11.35;96.63
41596;BME280;27283;52.504;13.358;2024-02-15T02:04:55;101333.19;;;11.65;96.50
41596;BME280;27283;52.504;13.358;2024-02-15T02:07:28;101328.22;;;11.52;95.33
41596;BME280;27283;52.504;13.358;2024-02-15T02:10:01;101325.53;;;11.26;98.67
41596;BME280;27283;52.504;13.358;2024-02-15T02:12:34;101326.34;;;11.27;96.63
41596;BME280;27283;52.504;13.358;2024-02-15T02:15:09;101318.50;;;11.60;96.22
41596;BME280;27283;52.504;13.358;2024-02-15T02:17:49;101325.06;;;11.57;95.61
41596;BME280;27283;52.504;13.358;2024-02-15T02:20:22;101324.69;;;11.52;94.91
41596;BME280;27283;52.504;13.358;2024-02-15T02:22:59;101322.81;;;11.26;97.57
41596;BME280;27283;52.504;13.358;2024-02-15T02:25:40;101330.75;;;11.80;95.68
41596;BME280;27283;52.504;13.358;2024-02-15T02:28:14;101328.81;;;11.64;94.26
41596;BME280;27283;52.504;13.358;2024-02-15T02:30:47;101323.69;;;11.79;94.85
41596;BME280;27283;52.504;13.358;2024-02-15T02:33:20;101324.25;;;11.65;95.58
41596;BME280;27283;52.504;13.358;2024-02-15T02:35:58;101327.63;;;11.41;95.75
41596;BME280;27283;52.504;13.358;2024-02-15T02:38:31;101322.03;;;11.60;95.10
41596;BME280;27283;52.504;13.358;2024-02-15T02:41:06;101322.63;;;11.46;96.86
41596;BME280;27283;52.504;13.358;2024-02-15T02:43:39;101322.38;;;11.13;97.55
41596;BME280;27283;52.504;13.358;2024-02-15T02:46:11;101321.88;;;11.35;98.32
41596;BME280;27283;52.504;13.358;2024-02-15T02:48:44;101320.88;;;11.37;97.47
41596;BME280;27283;52.504;13.358;2024-02-15T02:51:17;101324.69;;;11.52;96.48
41596;BME280;27283;52.504;13.358;2024-02-15T02:53:49;101323.91;;;11.60;96.70
41596;BME280;27283;52.504;13.358;2024-02-15T02:56:25;101326.44;;;11.61;96.77
41596;BME280;27283;52.504;13.358;2024-02-15T02:58:57;101324.38;;;11.55;95.49
41596;BME280;27283;52.504;13.358;2024-02-15T03:01:30;101325.03;;;11.83;95.31
41596;BME280;27283;52.504;13.358;2024-02-15T03:04:03;101323.25;;;11.66;95.20
41596;BME280;27283;52.504;13.358;2024-02-15T03:06:35;101323.38;;;11.91;94.59
41596;BME280;27283;52.504;13.358;2024-02-15T03:09:08;101328.66;;;11.66;95.32
41596;BME280;27283;52.504;13.358;2024-02-15T03:11:45;101327.03;;;11.73;94.64
41596;BME280;27283;52.504;13.358;2024-02-15T03:14:19;101324.16;;;11.75;95.55
41596;BME280;27283;52.504;13.358;2024-02-15T03:16:51;101320.94;;;11.45;97.13
41596;BME280;27283;52.504;13.358;2024-02-15T03:19:25;101322.34;;;11.83;95.51
41596;BME280;27283;52.504;13.358;2024-02-15T03:21:57;101319.81;;;11.56;96.61
41596;BME280;27283;52.504;13.358;2024-02-15T03:24:30;101325.56;;;11.87;95.16
41596;BME280;27283;52.504;13.358;2024-02-15T03:27:05;101318.94;;;11.73;95.67
41596;BME280;27283;52.504;13.358;2024-02-15T03:29:39;101316.25;;;11.73;96.39
41596;BME280;27283;52.504;13.358;2024-02-15T03:32:12;101319.59;;;12.01;94.91
41596;BME280;27283;52.504;13.358;2024-02-15T03:34:45;101322.00;;;11.52;95.41
41596;BME280;27283;52.504;13.358;2024-02-15T03:37:17;101329.94;;;11.88;93.95
41596;BME280;27283;52.504;13.358;2024-02-15T03:39:56;101324.06;;;11.58;95.03
41596;BME280;27283;52.504;13.358;2024-02-15T03:42:31;101320.66;;;11.56;95.52
41596;BME280;27283;52.504;13.358;2024-02-15T03:45:06;101324.13;;;11.22;95.99
41596;BME280;27283;52.504;13.358;2024-02-15T03:47:40;101333.41;;;11.98;95.67
41596;BME280;27283;52.504;13.358;2024-02-15T03:50:12;101337.78;;;11.99;93.52
41596;BME280;27283;52.504;13.358;2024-02-15T03:52:48;101328.50;;;11.94;93.77
41596;BME280;27283;52.504;13.358;2024-02-15T03:55:21;101333.03;;;11.93;94.98
41596;BME280;27283;52.504;13.358;2024-02-15T03:57:57;101325.63;;;11.95;93.86
41596;BME280;27283;52.504;13.358;2024-02-15T04:00:30;101324.25;;;11.65;96.50
41596;BME280;27283;52.504;13.358;2024-02-15T04:03:03;101322.41;;;11.92;94.40
41596;BME280;27283;52.504;13.358;2024-02-15T04:05:36;101319.75;;;12.00;95.14
41596;BME280;27283;52.504;13.358;2024-02-15T04:08:08;101324.31;;;11.99;94.49
41596;BME280;27283;52.504;13.358;2024-02-15T04:10:41;101322.88;;;11.61;95.26
41596;BME280;27283;52.504;13.358;2024-02-15T04:13:21;101320.16;;;12.13;94.04
41596;BME280;27283;52.504;13.358;2024-02-15T04:15:53;101323.94;;;11.42;95.41
41596;BME280;27283;52.504;13.358;2024-02-15T04:18:25;101326.09;;;11.91;95.37
41596;BME280;27283;52.504;13.358;2024-02-15T04:21:02;101329.63;;;11.91;95.86
41596;BME280;27283;52.504;13.358;2024-02-15T04:23:36;101322.44;;;12.34;94.24
41596;BME280;27283;52.504;13.358;2024-02-15T04:26:09;101328.88;;;11.99;93.73
41596;BME280;27283;52.504;13.358;2024-02-15T04:28:45;101323.72;;;11.87;94.24
41596;BME280;27283;52.504;13.358;2024-02-15T04:31:21;101326.59;;;12.20;92.90
41596;BME280;27283;52.504;13.358;2024-02-15T04:33:55;101327.09;;;12.24;93.18
41596;BME280;27283;52.504;13.358;2024-02-15T04:36:29;101324.34;;;12.08;93.66
41596;BME280;27283;52.504;13.358;2024-02-15T04:39:03;101320.69;;;12.17;94.17
41596;BME280;27283;52.504;13.358;2024-02-15T04:41:37;101324.63;;;12.31;93.05
41596;BME280;27283;52.504;13.358;2024-02-15T04:44:12;101320.13;;;12.48;92.14
41596;BME280;27283;52.504;13.358;2024-02-15T04:46:45;101324.22;;;12.17;93.38
41596;BME280;27283;52.504;13.358;2024-02-15T04:49:18;101320.69;;;12.17;93.93
41596;BME280;27283;52.504;13.358;2024-02-15T04:51:52;101325.19;;;12.08;93.92
41596;BME280;27283;52.504;13.358;2024-02-15T04:54:28;101324.00;;;12.11;94.49
41596;BME280;27283;52.504;13.358;2024-02-15T04:57:02;101325.38;;;12.15;94.20
41596;BME280;27283;52.504;13.358;2024-02-15T04:59:40;101324.56;;;12.22;93.72
41596;BME280;27283;52.504;13.358;2024-02-15T05:02:16;101322.69;;;12.15;93.47
41596;BME280;27283;52.504;13.358;2024-02-15T05:04:49;101323.75;;;12.30;92.98
41596;BME280;27283;52.504;13.358;2024-02-15T05:07:26;101327.19;;;12.06;93.82
41596;BME280;27283;52.504;13.358;2024-02-15T05:09:58;101327.44;;;12.21;93.65
41596;BME280;27283;52.504;13.358;2024-02-15T05:12:32;101333.53;;;12.23;93.46
41596;BME280;27283;52.504;13.358;2024-02-15T05:15:09;101333.22;;;12.00;94.40
41596;BME280;27283;52.504;13.358;2024-02-15T05:17:42;101330.34;;;12.28;93.15
41596;BME280;27283;52.504;13.358;2024-02-15T05:20:15;101336.47;;;12.03;93.05
41596;BME280;27283;52.504;13.358;2024-02-15T05:22:50;101334.19;;;11.64;96.89
41596;BME280;27283;52.504;13.358;2024-02-15T05:25:22;101332.56;;;11.98;96.12
41596;BME280;27283;52.504;13.358;2024-02-15T05:27:56;101333.63;;;12.13;95.06
41596;BME280;27283;52.504;13.358;2024-02-15T05:30:31;101338.06;;;12.22;94.49
41596;BME280;27283;52.504;13.358;2024-02-15T05:33:06;101335.00;;;12.17;94.61
41596;BME280;27283;52.504;13.358;2024-02-15T05:35:40;101332.63;;;12.14;94.29
41596;BME280;27283;52.504;13.358;2024-02-15T05:38:15;101329.72;;;12.08;95.06
41596;BME280;27283;52.504;13.358;2024-02-15T05:40:48;101332.06;;;12.02;94.96
41596;BME280;27283;52.504;13.358;2024-02-15T05:43:20;101340.34;;;12.09;94.57
41596;BME280;27283;52.504;13.358;2024-02-15T05:45:56;101335.66;;;11.85;94.87
41596;BME280;27283;52.504;13.358;2024-02-15T05:48:29;101341.47;;;11.98;94.66
41596;BME280;27283;52.504;13.358;2024-02-15T05:51:05;101339.94;;;12.30;94.37
41596;BME280;27283;52.504;13.358;2024-02-15T05:53:38;101335.47;;;12.47;93.55
41596;BME280;27283;52.504;13.358;2024-02-15T05:56:10;101336.00;;;12.16;94.49
41596;BME280;27283;52.504;13.358;2024-02-15T05:58:43;101343.34;;;12.32;93.80
41596;BME280;27283;52.504;13.358;2024-02-15T06:01:18;101339.66;;;11.99;95.55
41596;BME280;27283;52.504;13.358;2024-02-15T06:03:51;101335.34;;;12.14;95.61
41596;BME280;27283;52.504;13.358;2024-02-15T06:06:25;101342.31;;;12.33;93.75
41596;BME280;27283;52.504;13.358;2024-02-15T06:08:58;101335.81;;;12.10;95.00
41596;BME280;27283;52.504;13.358;2024-02-15T06:11:32;101333.13;;;12.10;95.63
41596;BME280;27283;52.504;13.358;2024-02-15T06:14:07;101336.06;;;12.33;95.03
41596;BME280;27283;52.504;13.358;2024-02-15T06:16:45;101331.63;;;11.89;96.38
41596;BME280;27283;52.504;13.358;2024-02-15T06:19:18;101350.28;;;12.00;95.91
41596;BME280;27283;52.504;13.358;2024-02-15T06:21:51;101341.53;;;12.07;96.20
41596;BME280;27283;52.504;13.358;2024-02-15T06:24:24;101341.97;;;12.28;94.39
41596;BME280;27283;52.504;13.358;2024-02-15T06:26:57;101340.69;;;12.57;93.50
41596;BME280;27283;52.504;13.358;2024-02-15T06:29:31;101338.50;;;12.52;93.93
41596;BME280;27283;52.504;13.358;2024-02-15T06:32:18;101353.56;;;12.29;93.81
41596;BME280;27283;52.504;13.358;2024-02-15T06:35:03;101352.47;;;12.48;94.17
41596;BME280;27283;52.504;13.358;2024-02-15T06:37:49;101360.50;;;11.97;95.71
41596;BME280;27283;52.504;13.358;2024-02-15T06:40:34;101355.56;;;12.61;93.70
41596;BME280;27283;52.504;13.358;2024-02-15T06:43:06;101356.72;;;12.58;92.66
41596;BME280;27283;52.504;13.358;2024-02-15T06:45:40;101362.47;;;12.13;95.17
41596;BME280;27283;52.504;13.358;2024-02-15T06:48:21;101367.31;;;12.09;95.09
41596;BME280;27283;52.504;13.358;2024-02-15T06:50:55;101361.44;;;12.14;94.76
41596;BME280;27283;52.504;13.358;2024-02-15T06:53:28;101368.50;;;12.07;95.37
41596;BME280;27283;52.504;13.358;2024-02-15T06:56:01;101375.31;;;12.27;96.20
41596;BME280;27283;52.504;13.358;2024-02-15T06:58:33;101363.75;;;12.43;93.91
41596;BME280;27283;52.504;13.358;2024-02-15T07:01:06;101369.31;;;12.41;93.82
41596;BME280;27283;52.504;13.358;2024-02-15T07:03:45;101376.34;;;12.26;95.21
41596;BME280;27283;52.504;13.358;2024-02-15T07:06:21;101378.91;;;12.36;95.89
41596;BME280;27283;52.504;13.358;2024-02-15T07:08:53;101386.50;;;12.40;94.58
41596;BME280;27283;52.504;13.358;2024-02-15T07:11:27;101384.09;;;11.95;96.45
41596;BME280;27283;52.504;13.358;2024-02-15T07:14:00;101384.03;;;12.13;96.09
41596;BME280;27283;52.504;13.358;2024-02-15T07:16:34;101383.03;;;12.65;94.23
41596;BME280;27283;52.504;13.358;2024-02-15T07:19:10;101385.34;;;12.51;93.53
41596;BME280;27283;52.504;13.358;2024-02-15T07:21:43;101385.41;;;12.68;94.37
41596;BME280;27283;52.504;13.358;2024-02-15T07:24:15;101389.41;;;12.13;96.14
41596;BME280;27283;52.504;13.358;2024-02-15T07:26:49;101378.84;;;11.93;95.60
41596;BME280;27283;52.504;13.358;2024-02-15T07:29:24;101383.13;;;12.38;93.97
41596;BME280;27283;52.504;13.358;2024-02-15T07:31:57;101379.19;;;12.67;93.77
41596;BME280;27283;52.504;13.358;2024-02-15T07:34:32;101374.81;;;12.74;92.54
41596;BME280;27283;52.504;13.358;2024-02-15T07:37:07;101379.22;;;12.84;92.62
41596;BME280;27283;52.504;13.358;2024-02-15T07:39:40;101379.81;;;11.92;95.89
41596;BME280;27283;52.504;13.358;2024-02-15T07:42:13;101370.88;;;12.52;94.43
41596;BME280;27283;52.504;13.358;2024-02-15T07:44:46;101381.72;;;12.69;93.93
41596;BME280;27283;52.504;13.358;2024-02-15T07:47:19;101381.72;;;12.69;93.84
41596;BME280;27283;52.504;13.358;2024-02-15T07:49:56;101380.16;;;12.58;93.87
41596;BME280;27283;52.504;13.358;2024-02-15T07:52:30;101377.31;;;12.68;93.79
41596;BME280;27283;52.504;13.358;2024-02-15T07:55:02;101370.44;;;12.82;93.74
41596;BME280;27283;52.504;13.358;2024-02-15T07:57:38;101377.81;;;12.63;93.08
41596;BME280;27283;52.504;13.358;2024-02-15T08:00:11;101376.66;;;12.74;92.25
41596;BME280;27283;52.504;13.358;2024-02-15T08:02:46;101378.53;;;12.73;94.30
41596;BME280;27283;52.504;13.358;2024-02-15T08:05:21;101385.78;;;12.73;94.17
41596;BME280;27283;52.504;13.358;2024-02-15T08:07:54;101388.41;;;13.40;91.88
41596;BME280;27283;52.504;13.358;2024-02-15T08:10:27;101379.31;;;13.58;90.37
41596;BME280;27283;52.504;13.358;2024-02-15T08:13:00;101382.97;;;13.24;89.35
41596;BME280;27283;52.504;13.358;2024-02-15T08:15:33;101386.22;;;13.52;89.78
41596;BME280;27283;52.504;13.358;2024-02-15T08:18:06;101380.81;;;13.52;88.70
41596;BME280;27283;52.504;13.358;2024-02-15T08:20:45;101368.66;;;13.40;90.26
41596;BME280;27283;52.504;13.358;2024-02-15T08:23:18;101373.41;;;13.38;90.09
41596;BME280;27283;52.504;13.358;2024-02-15T08:25:50;101387.25;;;13.59;90.42
41596;BME280;27283;52.504;13.358;2024-02-15T08:28:23;101383.53;;;13.52;89.87
41596;BME280;27283;52.504;13.358;2024-02-15T08:30:57;101395.13;;;13.86;88.97
41596;BME280;27283;52.504;13.358;2024-02-15T08:33:30;101390.78;;;13.68;89.77
41596;BME280;27283;52.504;13.358;2024-02-15T08:36:05;101389.44;;;13.47;90.71
41596;BME280;27283;52.504;13.358;2024-02-15T08:38:43;101386.22;;;13.52;88.77
41596;BME280;27283;52.504;13.358;2024-02-15T08:41:16;101397.31;;;13.08;92.13
41596;BME280;27283;52.504;13.358;2024-02-15T08:43:50;101384.22;;;13.54;90.22
41596;BME280;27283;52.504;13.358;2024-02-15T08:46:22;101382.31;;;13.22;91.05
41596;BME280;27283;52.504;13.358;2024-02-15T08:48:56;101380.47;;;13.55;90.44
41596;BME280;27283;52.504;13.358;2024-02-15T08:51:32;101388.41;;;13.81;88.63
41596;BME280;27283;52.504;13.358;2024-02-15T08:54:06;101385.69;;;13.32;89.49
41596;BME280;27283;52.504;13.358;2024-02-15T08:56:38;101380.84;;;13.44;92.35
41596;BME280;27283;52.504;13.358;2024-02-15T08:59:11;101389.25;;;13.65;89.46
41596;BME280;27283;52.504;13.358;2024-02-15T09:01:44;101390.25;;;13.23;91.32
41596;BME280;27283;52.504;13.358;2024-02-15T09:04:18;101392.63;;;13.76;90.88
41596;BME280;27283;52.504;13.358;2024-02-15T09:06:57;101385.69;;;13.73;89.75
41596;BME280;27283;52.504;13.358;2024-02-15T09:09:34;101389.56;;;13.79;88.36
41596;BME280;27283;52.504;13.358;2024-02-15T09:12:08;101388.06;;;13.85;88.99
41596;BME280;27283;52.504;13.358;2024-02-15T09:14:41;101377.78;;;13.55;91.06
41596;BME280;27283;52.504;13.358;2024-02-15T09:17:15;101375.59;;;13.51;90.72
41596;BME280;27283;52.504;13.358;2024-02-15T09:19:48;101384.19;;;13.62;89.38
41596;BME280;27283;52.504;13.358;2024-02-15T09:22:23;101390.03;;;14.07;88.39
41596;BME280;27283;52.504;13.358;2024-02-15T09:24:56;101391.03;;;14.06;87.71
41596;BME280;27283;52.504;13.358;2024-02-15T09:27:30;101399.28;;;14.13;88.50
41596;BME280;27283;52.504;13.358;2024-02-15T09:30:03;101393.13;;;13.88;88.35
41596;BME280;27283;52.504;13.358;2024-02-15T09:32:38;101391.47;;;13.62;89.95
41596;BME280;27283;52.504;13.358;2024-02-15T09:35:14;101389.75;;;13.77;89.61
41596;BME280;27283;52.504;13.358;2024-02-15T09:37:49;101396.16;;;13.76;88.32
41596;BME280;27283;52.504;13.358;2024-02-15T09:40:24;101397.81;;;14.02;89.69
41596;BME280;27283;52.504;13.358;2024-02-15T09:42:58;101398.19;;;13.82;88.56
41596;BME280;27283;52.504;13.358;2024-02-15T09:45:31;101396.69;;;13.72;88.26
41596;BME280;27283;52.504;13.358;2024-02-15T09:48:06;101396.84;;;13.70;90.71
41596;BME280;27283;52.504;13.358;2024-02-15T09:50:42;101403.91;;;13.96;87.48
41596;BME280;27283;52.504;13.358;2024-02-15T09:53:21;101402.25;;;13.78;91.20
41596;BME280;27283;52.504;13.358;2024-02-15T09:56:11;101406.28;;;14.47;86.64
41596;BME280;27283;52.504;13.358;2024-02-15T09:58:45;101409.34;;;14.44;86.92
41596;BME280;27283;52.504;13.358;2024-02-15T10:01:20;101409.09;;;14.22;86.36
41596;BME280;27283;52.504;13.358;2024-02-15T10:03:54;101407.44;;;14.61;85.66
41596;BME280;27283;52.504;13.358;2024-02-15T10:06:29;101415.94;;;14.81;85.72
41596;BME280;27283;52.504;13.358;2024-02-15T10:09:26;101413.56;;;14.86;83.17
41596;BME280;27283;52.504;13.358;2024-02-15T10:12:01;101419.94;;;14.53;84.28
41596;BME280;27283;52.504;13.358;2024-02-15T10:14:36;101410.28;;;14.67;85.00
41596;BME280;27283;52.504;13.358;2024-02-15T10:17:09;101404.56;;;14.94;84.90
41596;BME280;27283;52.504;13.358;2024-02-15T10:19:42;101405.34;;;14.31;86.70
41596;BME280;27283;52.504;13.358;2024-02-15T10:22:16;101404.72;;;14.61;84.87
41596;BME280;27283;52.504;13.358;2024-02-15T10:24:51;101404.16;;;14.74;85.56
41596;BME280;27283;52.504;13.358;2024-02-15T10:27:24;101405.78;;;15.14;84.16
41596;BME280;27283;52.504;13.358;2024-02-15T10:30:14;101407.72;;;14.66;86.94
41596;BME280;27283;52.504;13.358;2024-02-15T10:32:47;101409.72;;;15.03;84.75
41596;BME280;27283;52.504;13.358;2024-02-15T10:35:24;101400.66;;;15.19;83.49
41596;BME280;27283;52.504;13.358;2024-02-15T10:38:05;101397.81;;;15.36;83.37
41596;BME280;27283;52.504;13.358;2024-02-15T10:40:50;101398.59;;;14.98;84.73
41596;BME280;27283;52.504;13.358;2024-02-15T10:43:35;101395.25;;;14.65;86.15
41596;BME280;27283;52.504;13.358;2024-02-15T10:46:08;101391.03;;;15.17;85.95
41596;BME280;27283;52.504;13.358;2024-02-15T10:48:41;101393.53;;;15.18;83.41
41596;BME280;27283;52.504;13.358;2024-02-15T10:51:16;101400.41;;;15.06;83.60
41596;BME280;27283;52.504;13.358;2024-02-15T10:53:57;101401.56;;;15.58;81.18
41596;BME280;27283;52.504;13.358;2024-02-15T10:56:36;101395.66;;;15.31;82.59
41596;BME280;27283;52.504;13.358;2024-02-15T10:59:13;101401.38;;;15.59;84.25
41596;BME280;27283;52.504;13.358;2024-02-15T11:01:50;101414.44;;;15.94;81.90
41596;BME280;27283;52.504;13.358;2024-02-15T11:04:27;101402.78;;;15.70;82.30
41596;BME280;27283;52.504;13.358;2024-02-15T11:07:04;101398.13;;;15.79;81.79
41596;BME280;27283;52.504;13.358;2024-02-15T11:09:40;101406.75;;;15.83;82.55
41596;BME280;27283;52.504;13.358;2024-02-15T11:12:17;101396.22;;;15.65;84.13
41596;BME280;27283;52.504;13.358;2024-02-15T11:14:52;101400.63;;;16.04;79.36
41596;BME280;27283;52.504;13.358;2024-02-15T11:17:47;101396.41;;;16.16;81.48
41596;BME280;27283;52.504;13.358;2024-02-15T11:20:47;101388.09;;;16.69;76.71
41596;BME280;27283;52.504;13.358;2024-02-15T11:23:26;101385.75;;;16.15;78.70
41596;BME280;27283;52.504;13.358;2024-02-15T11:26:08;101389.84;;;15.95;78.46
41596;BME280;27283;52.504;13.358;2024-02-15T11:28:44;101380.75;;;16.18;79.54
41596;BME280;27283;52.504;13.358;2024-02-15T11:34:43;101393.03;;;15.84;81.01
41596;BME280;27283;52.504;13.358;2024-02-15T11:41:01;101381.69;;;15.19;83.27
41596;BME280;27283;52.504;13.358;2024-02-15T11:43:53;101393.09;;;15.53;81.74
41596;BME280;27283;52.504;13.358;2024-02-15T11:46:30;101382.47;;;15.28;82.34
41596;BME280;27283;52.504;13.358;2024-02-15T11:49:04;101380.19;;;15.40;82.39
41596;BME280;27283;52.504;13.358;2024-02-15T11:51:37;101381.75;;;15.11;83.14
41596;BME280;27283;52.504;13.358;2024-02-15T11:54:12;101384.44;;;14.88;84.90
41596;BME280;27283;52.504;13.358;2024-02-15T11:56:55;101385.66;;;15.32;82.22
41596;BME280;27283;52.504;13.358;2024-02-15T11:59:43;101382.16;;;15.23;83.34
41596;BME280;27283;52.504;13.358;2024-02-15T12:02:23;101384.44;;;14.88;86.14
41596;BME280;27283;52.504;13.358;2024-02-15T12:05:08;101375.19;;;15.29;82.97
41596;BME280;27283;52.504;13.358;2024-02-15T12:07:53;101373.78;;;15.10;82.89
41596;BME280;27283;52.504;13.358;2024-02-15T12:10:38;101377.66;;;15.38;81.96
41596;BME280;27283;52.504;13.358;2024-02-15T12:13:24;101363.06;;;15.77;80.83
41596;BME280;27283;52.504;13.358;2024-02-15T12:16:15;101364.22;;;14.99;84.37
41596;BME280;27283;52.504;13.358;2024-02-15T12:19:02;101363.94;;;15.17;84.43
41596;BME280;27283;52.504;13.358;2024-02-15T12:21:42;101366.78;;;15.23;84.86
41596;BME280;27283;52.504;13.358;2024-02-15T12:24:14;101354.81;;;15.71;82.64
41596;BME280;27283;52.504;13.358;2024-02-15T12:26:49;101357.13;;;15.59;83.47
41596;BME280;27283;52.504;13.358;2024-02-15T12:29:22;101355.19;;;15.68;81.67
41596;BME280;27283;52.504;13.358;2024-02-15T12:31:58;101359.06;;;16.03;81.16
41596;BME280;27283;52.504;13.358;2024-02-15T12:34:30;101359.44;;;16.15;79.39
41596;BME280;27283;52.504;13.358;2024-02-15T12:37:06;101351.22;;;16.08;79.16
41596;BME280;27283;52.504;13.358;2024-02-15T12:39:39;101355.44;;;15.96;78.34
41596;BME280;27283;52.504;13.358;2024-02-15T12:42:11;101338.16;;;16.48;75.80
41596;BME280;27283;52.504;13.358;2024-02-15T12:44:44;101342.53;;;15.98;79.40
41596;BME280;27283;52.504;13.358;2024-02-15T12:47:24;101331.75;;;16.20;78.29
41596;BME280;27283;52.504;13.358;2024-02-15T12:49:57;101327.47;;;16.47;76.51
41596;BME280;27283;52.504;13.358;2024-02-15T12:52:37;101335.97;;;16.22;76.33
41596;BME280;27283;52.504;13.358;2024-02-15T12:55:23;101341.50;;;16.14;77.08
41596;BME280;27283;52.504;13.358;2024-02-15T12:57:55;101334.38;;;16.64;75.12
41596;BME280;27283;52.504;13.358;2024-02-15T13:00:29;101335.91;;;16.52;74.20
41596;BME280;27283;52.504;13.358;2024-02-15T13:14:35;101321.63;;;16.65;76.27
41596;BME280;27283;52.504;13.358;2024-02-15T13:17:07;101317.31;;;16.71;74.15
41596;BME280;27283;52.504;13.358;2024-02-15T13:19:45;101322.31;;;16.67;73.72
41596;BME280;27283;52.504;13.358;2024-02-15T13:22:18;101327.78;;;16.52;76.46
41596;BME280;27283;52.504;13.358;2024-02-15T13:24:50;101323.91;;;16.61;75.98
41596;BME280;27283;52.504;13.358;2024-02-15T13:27:24;101321.72;;;16.72;74.64
41596;BME280;27283;52.504;13.358;2024-02-15T13:30:05;101327.75;;;16.16;77.92
41596;BME280;27283;52.504;13.358;2024-02-15T13:32:39;101326.06;;;15.85;77.73
41596;BME280;27283;52.504;13.358;2024-02-15T13:35:12;101319.59;;;16.16;76.70
41596;BME280;27283;52.504;13.358;2024-02-15T13:37:49;101307.22;;;16.64;74.91
41596;BME280;27283;52.504;13.358;2024-02-15T13:40:22;101301.31;;;16.76;73.63